Airfield :
LOGIN :

Register | Disclaimer

   EN    FR    IT 

 










Legend :    VFR   Marginal VFR   IFR   Intensive IFR   Very Intensive IFR
Visi :
Ceiling :
>= 8 km
>= 3000ft
5 to 8 km
1000 to 3000 ft
1500m to 5 km
500 to 1000 ft
800 to 1500m
200 to 500 ft
< 800m
< 200 ft
Symbols :   Thunderstorms  Fog  Heavy snow  Heavy precipitations  Wind > 20 kt
SIGMETs :     Misc.  Thunderstorms  Icing  Turbulence  Mountain Waves  Volcanic Ashes







- Airport Elevation : 408 ft
- IATA code : FKB


EDSB - Karlsruhe Baden Baden

CURRENT METAR :
  • 181550Z 24013KT 9000 SHRA FEW012 SCT024 OVC041 09/07 Q1004

EXPIRED METARs :
  • 181520Z 23006KT 200V260 4500 SHRA FEW011 BKN016 OVC038 08/07 Q1004
  • 181450Z 25009KT 6000 RA BKN013 BKN019 09/07 Q1004
  • 181420Z 24012KT 210V270 7000 RA OVC028 10/06 Q1003
  • 181350Z 21021KT 9999 SHRA OVC029 09/06 Q1002
  • 181320Z 21021G33KT 9999 VCSH OVC028 09/05 Q1002
  • 181250Z 20025G35KT 9999 VCSH OVC031 08/05 Q1002

TAF TAF EDSB
Valid from the 18 at 12:00 until the 19 at 12:00 UTC


181100Z 1812/1912 20025G35KT 9999 BKN035
TEMPO 1812/1816 22030G40KT SHRA BKN020CB
BECMG 1816/1818 22015G30KT
TEMPO 1816/1912 SHRA BKN020CB
BECMG 1818/1820 23012KT
PROB30
TEMPO 1904/1909 4500 SHRASN BKN012CB
No reported NOTAMs for that airfield.
1 SIGMET reported for the Langen FIR (EDGG) :
 
Severe turbulence
EDGG SIGMET 5 VALID 181500/181700 EDZF
EDGG LANGEN FIR SEV TURB FCST NE OF LINE N4920 E01045 - N5215 E00740 SFC/FL060 MOV E 30KT NC=



MET'MAP, your aeronautical weather chart ! - Copyright ORBIFLY December 2007 - Disclaimer

ORBIFLY MET'MAP TEAM :

Programming & Development : Alexandra Zaïnal
Concept & Development : Baudouin d'Aumeries
Co-Development & Prog : Marc-Olivier Méhu
Technical & hardware support : Manuel Goepfert

Contact : metmap@orbifly.com




SOURCES & CREDITS :

   NOAA